Time;durP1;ratioP1;P1;durP2;ratioP2;P2;SDS_P1;SDS_P2;PMS_P1;PMS_P2;Temp;Humidity;BMP_temperature;BMP_pressure;BME280_temperature;BME280_humidity;BME280_pressure;Samples;Min_cycle;Max_cycle;Signal;HPM_P1;HPM_P2
2021/04/03 00:00:20;;;;;;;25.90;2.63;;;;;;;4.46;50.58;102381.28;4976223;28;20166;-68
2021/04/03 00:02:46;;;;;;;22.15;2.90;;;;;;;4.38;50.83;102383.75;4963357;28;20069;-69
2021/04/03 00:05:14;;;;;;;40.28;4.22;;;;;;;4.24;51.25;102379.31;4980428;28;20069;-68
2021/04/03 00:07:39;;;;;;;29.73;4.25;;;;;;;4.11;51.47;102378.31;4978425;28;20038;-68
2021/04/03 00:10:15;;;;;;;24.70;3.65;;;;;;;4.05;51.71;102373.06;4982457;28;20030;-68
2021/04/03 00:12:41;;;;;;;23.60;2.50;;;;;;;3.99;52.05;102371.28;4998837;28;20109;-68
2021/04/03 00:15:08;;;;;;;19.92;2.40;;;;;;;3.95;51.72;102378.13;4979539;28;20046;-68
2021/04/03 00:17:34;;;;;;;15.55;2.22;;;;;;;4.06;51.39;102377.41;4985704;28;20041;-67
2021/04/03 00:19:59;;;;;;;21.75;3.28;;;;;;;3.99;51.67;102376.47;4989823;28;20384;-69
2021/04/03 00:22:25;;;;;;;32.05;3.17;;;;;;;3.99;51.50;102385.09;4985227;28;20042;-68
2021/04/03 00:24:51;;;;;;;27.77;3.67;;;;;;;3.89;51.87;102383.22;4979313;28;20034;-68
2021/04/03 00:27:17;;;;;;;25.70;2.80;;;;;;;3.87;51.93;102387.50;4974389;28;20038;-68
2021/04/03 00:29:42;;;;;;;27.88;4.18;;;;;;;3.82;51.62;102386.59;4980248;28;20049;-68
2021/04/03 00:32:08;;;;;;;21.25;2.75;;;;;;;3.85;51.79;102385.75;4981473;28;20077;-68
2021/04/03 00:34:34;;;;;;;32.28;3.92;;;;;;;3.85;51.85;102393.53;4980865;28;20116;-69
2021/04/03 00:36:59;;;;;;;22.52;3.47;;;;;;;3.86;51.84;102398.72;4981565;28;20407;-68
2021/04/03 00:39:25;;;;;;;41.60;4.03;;;;;;;3.82;52.06;102404.69;4999074;28;20034;-68
2021/04/03 00:41:51;;;;;;;31.48;2.88;;;;;;;3.82;52.27;102396.94;4983169;28;20133;-68
2021/04/03 00:44:16;;;;;;;32.38;3.13;;;;;;;3.84;52.16;102396.97;4982694;28;20038;-69
2021/04/03 00:46:42;;;;;;;34.50;4.72;;;;;;;3.83;52.45;102413.31;4990657;28;20044;-68
2021/04/03 00:49:07;;;;;;;23.83;5.93;;;;;;;3.81;52.06;102410.72;4994628;28;20072;-67
2021/04/03 00:51:34;;;;;;;21.67;4.20;;;;;;;3.82;52.04;102407.28;4989599;28;20133;-68
2021/04/03 00:54:00;;;;;;;18.60;3.15;;;;;;;3.70;52.37;102402.84;4975138;28;20030;-68
2021/04/03 00:56:27;;;;;;;24.30;2.85;;;;;;;3.81;52.06;102408.16;4981363;28;20030;-69
2021/04/03 00:58:54;;;;;;;24.73;2.67;;;;;;;3.78;51.84;102408.97;4975953;28;20508;-68
2021/04/03 01:01:21;;;;;;;28.30;3.58;;;;;;;3.73;52.34;102409.75;4969637;28;20121;-67
2021/04/03 01:03:49;;;;;;;23.30;3.67;;;;;;;3.68;52.16;102407.13;4976633;28;20026;-68
2021/04/03 01:06:16;;;;;;;30.27;3.55;;;;;;;3.62;52.61;102414.78;4989934;28;20183;-68
2021/04/03 01:08:42;;;;;;;32.42;4.55;;;;;;;3.61;52.52;102409.59;4981409;28;20043;-68
2021/04/03 01:11:09;;;;;;;33.53;4.90;;;;;;;3.46;53.33;102412.84;4980252;28;20118;-68
2021/04/03 01:14:01;;;;;;;36.13;3.40;;;;;;;3.51;52.93;102417.22;4983895;28;20038;-68
2021/04/03 01:16:43;;;;;;;21.35;3.03;;;;;;;3.41;52.93;102420.53;4996687;28;20053;-71
2021/04/03 01:19:34;;;;;;;25.77;2.92;;;;;;;3.46;53.13;102408.53;5000336;28;20534;-68
2021/04/03 01:22:29;;;;;;;30.00;3.35;;;;;;;3.39;53.34;102407.56;4980680;28;20546;-70
2021/04/03 01:25:10;;;;;;;29.48;4.13;;;;;;;3.34;52.98;102405.78;5001018;28;20415;-68
2021/04/03 01:27:52;;;;;;;26.17;3.78;;;;;;;3.27;53.31;102398.72;5003238;28;20054;-71
2021/04/03 01:30:22;;;;;;;25.60;4.00;;;;;;;3.27;53.37;102407.38;4981680;28;20060;-68
2021/04/03 01:33:08;;;;;;;31.52;4.28;;;;;;;3.24;53.84;102409.03;4993147;28;20042;-67
2021/04/03 01:35:45;;;;;;;33.58;3.30;;;;;;;3.27;53.52;102409.06;4976423;28;20483;-68
2021/04/03 01:38:31;;;;;;;25.98;3.75;;;;;;;3.23;53.68;102407.31;4995279;28;20044;-68
2021/04/03 01:41:00;;;;;;;16.67;3.00;;;;;;;3.19;53.31;102403.78;4983446;28;20030;-69
2021/04/03 01:43:30;;;;;;;21.52;2.55;;;;;;;3.08;54.03;102406.19;4993982;28;20069;-68
2021/04/03 01:45:58;;;;;;;25.10;2.53;;;;;;;3.15;53.82;102409.75;4970569;28;20121;-67
2021/04/03 01:48:26;;;;;;;32.65;4.43;;;;;;;3.15;54.05;102418.38;4982483;28;20248;-68
2021/04/03 01:50:52;;;;;;;35.05;3.90;;;;;;;3.18;54.07;102423.59;4983898;28;20039;-69
2021/04/03 01:53:24;;;;;;;22.95;3.75;;;;;;;3.18;54.06;102418.44;4978135;28;20037;-68
2021/04/03 01:56:01;;;;;;;26.92;3.42;;;;;;;3.03;54.64;102418.19;4965409;28;20031;-68
2021/04/03 01:58:34;;;;;;;41.80;4.10;;;;;;;3.09;54.55;102418.28;4992581;28;20044;-69
2021/04/03 02:01:03;;;;;;;29.83;2.70;;;;;;;3.08;54.55;102424.28;4979960;28;20031;-68
2021/04/03 02:03:32;;;;;;;44.85;5.70;;;;;;;3.08;54.46;102413.94;4983019;28;20034;-69
2021/04/03 02:05:59;;;;;;;43.45;5.03;;;;;;;3.13;54.31;102430.38;4980650;28;20030;-67
2021/04/03 02:08:40;;;;;;;28.70;3.95;;;;;;;3.14;53.88;102421.81;4984756;28;20674;-68
2021/04/03 02:11:42;;;;;;;21.10;5.80;;;;;;;3.06;54.53;102422.53;4987820;28;20073;-69
2021/04/03 02:14:25;;;;;;;23.30;3.37;;;;;;;3.03;54.11;102420.78;4992856;28;20456;-70
2021/04/03 02:16:52;;;;;;;27.88;3.63;;;;;;;2.94;54.32;102423.22;4966569;28;20320;-69
2021/04/03 02:19:18;;;;;;;19.58;3.47;;;;;;;2.91;54.33;102423.13;4967413;28;20051;-68
2021/04/03 02:21:45;;;;;;;43.40;4.68;;;;;;;2.85;54.52;102425.63;5000336;28;20041;-67
2021/04/03 02:24:11;;;;;;;36.15;5.18;;;;;;;2.86;54.40;102429.94;4982303;28;20048;-68
2021/04/03 02:26:37;;;;;;;22.73;3.17;;;;;;;2.84;54.69;102421.28;4982331;28;20120;-68
2021/04/03 02:29:05;;;;;;;37.80;3.85;;;;;;;2.84;54.65;102426.47;4966886;28;20520;-68
2021/04/03 02:31:33;;;;;;;30.30;3.00;;;;;;;2.78;54.50;102435.00;4980791;28;20255;-68
2021/04/03 02:33:59;;;;;;;27.52;3.95;;;;;;;2.74;54.80;102428.88;4975611;28;20030;-68
2021/04/03 02:36:25;;;;;;;36.75;4.75;;;;;;;2.74;55.28;102428.88;4995819;28;20042;-67
2021/04/03 02:38:51;;;;;;;20.33;3.40;;;;;;;2.89;54.76;102432.56;4968780;28;20081;-67
2021/04/03 02:41:24;;;;;;;22.00;3.42;;;;;;;2.88;54.69;102428.25;4986139;28;20038;-70
2021/04/03 02:43:56;;;;;;;28.30;3.83;;;;;;;2.83;54.69;102440.22;4968135;28;20035;-69
2021/04/03 02:46:28;;;;;;;26.98;3.47;;;;;;;2.81;54.55;102439.34;4981475;28;20557;-69
2021/04/03 02:49:02;;;;;;;24.35;4.07;;;;;;;2.71;54.94;102436.59;4976237;28;20101;-68
2021/04/03 02:51:41;;;;;;;23.25;3.70;;;;;;;2.84;54.58;102437.66;4985016;28;20046;-69
2021/04/03 02:54:10;;;;;;;20.83;2.75;;;;;;;2.83;54.38;102447.97;4979204;28;20022;-69
2021/04/03 02:56:40;;;;;;;22.67;2.72;;;;;;;2.76;54.68;102442.69;5001572;28;20519;-68
2021/04/03 02:59:15;;;;;;;23.40;3.05;;;;;;;2.73;54.33;102458.16;4991374;28;20057;-67
2021/04/03 03:01:43;;;;;;;29.55;3.00;;;;;;;2.66;54.32;102464.00;4984343;28;20034;-69
2021/04/03 03:04:10;;;;;;;26.33;3.83;;;;;;;2.60;54.36;102457.88;4976534;28;20042;-68
2021/04/03 03:06:37;;;;;;;35.25;4.82;;;;;;;2.56;54.38;102457.81;4979494;28;20089;-67
2021/04/03 03:09:06;;;;;;;20.73;3.00;;;;;;;2.50;54.87;102451.69;4984198;28;20491;-68
2021/04/03 03:11:35;;;;;;;30.85;3.95;;;;;;;2.52;54.77;102452.56;4980937;28;20125;-69
2021/04/03 03:14:02;;;;;;;37.45;3.83;;;;;;;2.59;54.79;102454.44;4990416;28;20027;-68
2021/04/03 03:16:29;;;;;;;29.27;3.17;;;;;;;2.49;55.42;102460.28;4983120;28;20051;-68
2021/04/03 03:18:57;;;;;;;27.02;2.88;;;;;;;2.62;54.62;102467.38;4979751;28;20041;-67
2021/04/03 03:21:24;;;;;;;24.80;3.20;;;;;;;2.56;54.49;102460.41;5000805;28;20602;-68
2021/04/03 03:23:51;;;;;;;28.35;3.58;;;;;;;2.47;54.53;102457.66;4980009;28;20031;-67
2021/04/03 03:26:17;;;;;;;32.08;3.72;;;;;;;2.44;54.75;102456.72;4974470;28;20062;-68
2021/04/03 03:28:47;;;;;;;24.90;3.05;;;;;;;2.48;54.43;102454.22;4972021;28;20042;-69
2021/04/03 03:31:14;;;;;;;32.65;3.17;;;;;;;2.44;54.19;102451.56;4976420;28;20073;-68
2021/04/03 03:33:41;;;;;;;13.95;2.03;;;;;;;2.44;54.19;102443.81;5000052;28;20491;-69
2021/04/03 03:36:08;;;;;;;27.00;3.50;;;;;;;2.43;54.32;102450.69;4993789;28;20081;-69
2021/04/03 03:38:36;;;;;;;22.05;2.90;;;;;;;2.46;54.49;102444.72;4980448;28;20073;-69
2021/04/03 03:41:05;;;;;;;26.25;3.55;;;;;;;2.51;54.64;102454.28;4977075;28;20034;-67
2021/04/03 03:43:36;;;;;;;21.60;3.30;;;;;;;2.46;54.66;102449.88;4983324;28;20050;-69
2021/04/03 03:46:05;;;;;;;31.60;3.67;;;;;;;2.45;54.35;102449.00;4972553;28;20286;-69
2021/04/03 03:48:33;;;;;;;21.50;3.17;;;;;;;2.41;54.69;102444.63;4992258;28;20643;-70
2021/04/03 03:50:59;;;;;;;19.50;2.25;;;;;;;2.39;54.29;102455.75;4975046;28;20078;-68
2021/04/03 03:53:26;;;;;;;29.35;2.95;;;;;;;2.34;54.34;102450.50;4965034;28;20059;-67
2021/04/03 03:55:54;;;;;;;27.23;3.65;;;;;;;2.26;54.69;102447.75;4975024;28;20054;-69
2021/04/03 03:58:23;;;;;;;16.70;2.92;;;;;;;2.29;54.62;102455.59;4994358;28;20041;-69
2021/04/03 04:00:50;;;;;;;37.03;3.42;;;;;;;2.23;54.66;102447.72;4996372;28;20065;-68
2021/04/03 04:03:18;;;;;;;16.50;2.40;;;;;;;2.31;54.48;102455.59;4976450;28;20027;-69
2021/04/03 04:05:49;;;;;;;18.55;2.45;;;;;;;2.34;54.14;102459.13;4997639;28;20034;-69
2021/04/03 04:08:19;;;;;;;19.17;3.05;;;;;;;2.24;54.31;102459.78;4995565;28;20099;-68
2021/04/03 04:10:48;;;;;;;35.90;3.45;;;;;;;2.18;54.39;102463.97;4986614;28;20202;-69
2021/04/03 04:13:16;;;;;;;27.27;3.03;;;;;;;2.17;54.60;102472.53;4986291;28;20026;-68
2021/04/03 04:15:43;;;;;;;36.08;2.47;;;;;;;2.13;54.53;102464.72;4997729;28;20091;-68
2021/04/03 04:18:09;;;;;;;27.58;3.03;;;;;;;2.13;54.33;102469.00;5000092;28;20038;-68
2021/04/03 04:20:35;;;;;;;25.10;1.65;;;;;;;2.14;54.02;102468.16;5001735;28;20035;-68
2021/04/03 04:23:08;;;;;;;25.45;3.60;;;;;;;2.10;54.56;102476.69;4964893;28;20027;-69
2021/04/03 04:25:38;;;;;;;24.33;3.33;;;;;;;2.15;54.81;102477.63;4975597;28;20043;-69
2021/04/03 04:28:06;;;;;;;31.23;3.33;;;;;;;2.11;54.54;102476.72;4992169;28;20030;-69
2021/04/03 04:30:33;;;;;;;11.85;2.15;;;;;;;2.13;54.39;102481.88;4965910;28;20122;-68
2021/04/03 04:33:06;;;;;;;15.57;2.45;;;;;;;2.19;53.85;102482.03;4980364;28;20133;-69
2021/04/03 04:35:32;;;;;;;17.42;3.25;;;;;;;2.11;53.99;102493.91;4977885;28;20042;-68
2021/04/03 04:38:00;;;;;;;25.13;4.85;;;;;;;2.01;54.51;102497.13;4993725;28;20046;-70
2021/04/03 04:40:29;;;;;;;19.27;3.75;;;;;;;1.96;54.88;102497.03;4977817;28;20038;-68
2021/04/03 04:42:57;;;;;;;23.60;3.72;;;;;;;2.05;54.53;102493.78;4983099;28;20072;-69
2021/04/03 04:45:27;;;;;;;15.17;3.17;;;;;;;2.04;54.55;102499.75;4991824;28;20062;-69
2021/04/03 04:47:53;;;;;;;19.55;2.55;;;;;;;2.00;54.47;102506.56;4979702;28;20034;-69
2021/04/03 04:50:20;;;;;;;21.45;3.50;;;;;;;2.08;54.23;102506.72;4984018;28;20030;-68
2021/04/03 04:52:47;;;;;;;30.88;3.00;;;;;;;2.08;54.30;102506.72;4980201;28;20025;-70
2021/04/03 04:55:15;;;;;;;22.92;3.28;;;;;;;2.03;54.32;102504.06;4999105;28;20047;-69
2021/04/03 04:57:43;;;;;;;31.42;3.38;;;;;;;2.04;54.38;102513.53;4984904;28;20637;-68
2021/04/03 05:00:14;;;;;;;23.00;2.92;;;;;;;1.93;54.39;102518.47;4998973;28;20022;-69
2021/04/03 05:02:50;;;;;;;33.25;4.40;;;;;;;1.97;54.92;102519.38;5001146;28;20121;-69
2021/04/03 05:05:16;;;;;;;25.15;2.53;;;;;;;2.01;54.51;102528.06;4984401;28;20109;-69
2021/04/03 05:07:41;;;;;;;23.02;2.90;;;;;;;2.02;54.75;102527.22;4973034;28;20042;-68
2021/04/03 05:10:07;;;;;;;15.10;2.47;;;;;;;2.03;54.71;102527.25;4981277;28;20026;-69
2021/04/03 05:12:33;;;;;;;30.75;2.83;;;;;;;2.17;54.78;102534.44;4997560;28;20030;-70
2021/04/03 05:14:58;;;;;;;22.63;3.13;;;;;;;2.21;54.49;102536.25;4977504;28;20420;-69
2021/04/03 05:17:24;;;;;;;13.45;2.38;;;;;;;2.23;54.62;102543.19;4978437;28;20089;-68
2021/04/03 05:19:49;;;;;;;28.92;3.65;;;;;;;2.20;54.95;102544.81;4992383;28;20062;-69
2021/04/03 05:22:15;;;;;;;20.05;2.28;;;;;;;2.34;55.05;102548.56;4976283;28;20029;-69
2021/04/03 05:24:42;;;;;;;22.63;2.90;;;;;;;2.52;54.87;102553.25;4979436;28;20034;-69
2021/04/03 05:27:08;;;;;;;14.30;2.33;;;;;;;2.68;54.80;102560.44;4981132;28;20027;-68
2021/04/03 05:29:33;;;;;;;19.10;3.15;;;;;;;2.88;54.63;102562.56;4979336;28;20042;-69
2021/04/03 05:31:59;;;;;;;26.17;2.75;;;;;;;2.91;54.38;102560.03;4976618;28;20038;-69
2021/04/03 05:34:24;;;;;;;18.27;2.45;;;;;;;2.96;54.47;102561.00;4981515;28;20047;-68
2021/04/03 05:36:50;;;;;;;32.92;3.38;;;;;;;2.92;54.01;102565.22;4976855;28;20068;-69
2021/04/03 05:39:15;;;;;;;17.65;3.90;;;;;;;3.05;54.35;102573.22;4997991;28;20041;-68
2021/04/03 05:41:41;;;;;;;31.42;4.07;;;;;;;3.18;53.87;102573.47;4983784;28;20592;-69
2021/04/03 05:44:09;;;;;;;17.50;3.45;;;;;;;3.34;54.14;102578.94;5004237;22;20018;-68
2021/04/03 05:46:39;;;;;;;32.05;3.30;;;;;;;3.52;54.06;102570.63;5014604;28;20116;-66
2021/04/03 05:49:06;;;;;;;20.27;2.53;;;;;;;3.59;53.33;102575.91;4995196;28;20034;-66
2021/04/03 05:51:31;;;;;;;40.45;5.65;;;;;;;4.54;51.71;102575.53;4995945;28;20118;-67
2021/04/03 05:54:01;;;;;;;29.77;4.15;;;;;;;6.05;49.50;102578.72;5001344;28;20121;-67
2021/04/03 05:56:28;;;;;;;31.75;5.57;;;;;;;7.73;46.18;102574.91;4977825;28;20112;-66
2021/04/03 05:58:54;;;;;;;28.15;2.92;;;;;;;9.10;40.33;102570.97;4992819;28;20035;-68
2021/04/03 06:01:20;;;;;;;13.23;2.55;;;;;;;9.92;39.16;102571.16;4975924;28;20504;-68
2021/04/03 06:03:45;;;;;;;22.70;2.60;;;;;;;10.16;37.91;102576.13;4992814;28;20044;-68
2021/04/03 06:06:11;;;;;;;26.42;3.35;;;;;;;11.10;35.58;102579.28;4980593;28;20050;-68
2021/04/03 06:08:37;;;;;;;15.00;2.60;;;;;;;11.33;33.82;102573.69;4975044;28;20042;-68
2021/04/03 06:11:09;;;;;;;15.63;2.22;;;;;;;11.45;34.66;102579.59;4976244;28;20109;-67
2021/04/03 06:13:35;;;;;;;19.67;2.78;;;;;;;11.95;33.80;102587.47;4973934;28;20054;-69
2021/04/03 06:16:01;;;;;;;27.27;3.30;;;;;;;12.11;32.66;102580.22;4975913;28;20023;-68
2021/04/03 06:18:26;;;;;;;16.48;3.20;;;;;;;12.13;33.65;102593.28;4977020;28;20057;-68
2021/04/03 06:21:06;;;;;;;29.48;4.53;;;;;;;12.68;32.08;102595.63;4961785;28;20345;-67
2021/04/03 06:23:32;;;;;;;17.65;3.30;;;;;;;12.70;32.31;102601.75;4972609;28;20034;-67
2021/04/03 06:25:58;;;;;;;17.75;2.88;;;;;;;12.37;33.29;102605.03;4979191;28;20039;-69
2021/04/03 06:28:29;;;;;;;30.55;3.67;;;;;;;13.06;32.07;102598.34;4978295;28;20050;-68
2021/04/03 06:31:19;;;;;;;22.48;3.08;;;;;;;13.96;32.91;102604.91;4974729;28;20054;-67
2021/04/03 06:33:45;;;;;;;26.67;3.88;;;;;;;14.80;29.45;102607.78;4971593;28;20041;-67
2021/04/03 06:36:15;;;;;;;27.48;2.97;;;;;;;14.94;29.86;102615.25;4979140;28;20427;-68
2021/04/03 06:38:42;;;;;;;20.33;3.70;;;;;;;15.44;28.43;102620.72;4973262;28;20609;-66
2021/04/03 06:41:15;;;;;;;15.88;4.82;;;;;;;16.91;26.70;102624.28;4976424;28;20096;-67
2021/04/03 06:43:40;;;;;;;18.65;3.40;;;;;;;16.96;26.73;102627.63;4972693;28;20090;-67
2021/04/03 06:46:25;;;;;;;22.92;4.10;;;;;;;17.56;25.50;102630.47;4972991;28;20449;-67
2021/04/03 06:48:55;;;;;;;23.42;4.53;;;;;;;17.39;25.88;102626.72;4974783;28;20035;-68
2021/04/03 06:51:24;;;;;;;20.10;3.15;;;;;;;17.65;26.00;102628.31;4979053;28;20110;-68
2021/04/03 06:53:51;;;;;;;12.65;3.60;;;;;;;17.82;25.03;102629.38;4976476;28;20089;-66
2021/04/03 06:56:20;;;;;;;18.70;3.30;;;;;;;17.95;25.21;102630.56;4973288;28;20030;-68
2021/04/03 06:58:47;;;;;;;22.63;3.08;;;;;;;17.88;25.30;102638.84;4975543;28;20041;-67
2021/04/03 07:01:16;;;;;;;20.85;3.03;;;;;;;17.49;25.49;102632.50;4976648;28;20053;-67
2021/04/03 07:03:44;;;;;;;21.98;3.60;;;;;;;18.59;24.71;102636.59;4972003;28;20066;-67
2021/04/03 07:06:10;;;;;;;19.85;3.28;;;;;;;18.86;23.92;102635.28;4972960;28;20121;-67
2021/04/03 07:08:37;;;;;;;25.45;3.17;;;;;;;18.92;25.13;102639.47;4974084;28;20039;-68
2021/04/03 07:11:06;;;;;;;22.10;3.55;;;;;;;18.46;24.47;102639.78;4974825;28;20149;-68
2021/04/03 07:13:32;;;;;;;29.98;5.78;;;;;;;17.83;26.18;102636.41;4969062;28;20214;-68
2021/04/03 07:16:01;;;;;;;18.48;3.42;;;;;;;17.55;25.93;102642.00;4975103;28;20158;-68
2021/04/03 07:18:29;;;;;;;19.60;2.92;;;;;;;17.07;27.72;102640.38;4987165;28;20034;-66
2021/04/03 07:20:55;;;;;;;18.23;4.05;;;;;;;17.46;25.73;102629.97;4989907;28;20034;-70
2021/04/03 07:23:21;;;;;;;20.25;3.80;;;;;;;17.04;26.08;102638.72;4971919;28;20062;-70
2021/04/03 07:25:50;;;;;;;27.92;3.70;;;;;;;18.49;24.96;102633.47;4974924;28;20030;-69
2021/04/03 07:28:15;;;;;;;20.70;4.03;;;;;;;18.44;24.84;102641.63;4975698;28;20033;-67
2021/04/03 07:30:43;;;;;;;17.65;3.78;;;;;;;18.65;23.82;102636.28;4973875;28;20042;-67
2021/04/03 07:33:10;;;;;;;12.93;3.50;;;;;;;17.97;23.70;102639.28;4975833;28;20037;-67
2021/04/03 07:35:47;;;;;;;20.75;5.05;;;;;;;18.19;24.83;102643.69;4969544;28;20125;-68
2021/04/03 07:38:21;;;;;;;16.45;3.22;;;;;;;17.34;25.38;102655.13;4971218;28;20616;-68
2021/04/03 07:40:51;;;;;;;15.77;3.50;;;;;;;17.70;25.45;102645.78;4972846;28;20090;-69
2021/04/03 07:43:29;;;;;;;25.35;4.00;;;;;;;18.65;23.80;102641.56;4959545;28;20026;-67
2021/04/03 07:46:00;;;;;;;18.63;4.55;;;;;;;17.97;24.75;102652.53;4970927;28;20039;-67
2021/04/03 07:48:38;;;;;;;23.27;5.53;;;;;;;19.01;24.01;102649.63;4977885;28;20042;-68
2021/04/03 07:51:05;;;;;;;20.30;3.03;;;;;;;18.05;24.39;102646.88;4990919;28;20042;-68
2021/04/03 07:53:38;;;;;;;16.20;2.05;;;;;;;18.04;25.43;102646.03;4952311;28;20043;-67
2021/04/03 07:56:05;;;;;;;17.92;2.72;;;;;;;18.01;25.52;102659.41;4986462;28;20181;-68
2021/04/03 07:58:35;;;;;;;21.90;2.90;;;;;;;17.24;26.33;102652.00;4973013;28;20088;-68
2021/04/03 08:01:04;;;;;;;11.48;2.90;;;;;;;18.02;24.99;102652.31;4974104;28;20030;-69
2021/04/03 08:03:31;;;;;;;13.52;3.45;;;;;;;17.16;26.02;102667.31;4972160;28;20031;-69
2021/04/03 08:06:15;;;;;;;18.00;2.72;;;;;;;17.38;25.51;102659.38;4972340;28;20039;-67
2021/04/03 08:08:40;;;;;;;16.38;3.65;;;;;;;18.37;24.20;102666.69;4987147;28;20902;-67
2021/04/03 08:11:07;;;;;;;15.77;3.50;;;;;;;19.05;23.56;102658.25;4968668;28;20080;-69
2021/04/03 08:13:36;;;;;;;18.98;3.47;;;;;;;17.55;25.34;102661.34;4969666;28;20038;-68
2021/04/03 08:16:05;;;;;;;22.15;3.60;;;;;;;16.89;26.87;102668.38;4973045;28;20231;-67
2021/04/03 08:18:31;;;;;;;23.23;3.47;;;;;;;16.94;26.18;102674.34;4972965;28;20039;-68
2021/04/03 08:20:57;;;;;;;19.55;3.70;;;;;;;16.67;26.32;102685.00;4986380;28;20496;-67
2021/04/03 08:23:31;;;;;;;20.27;3.35;;;;;;;15.60;29.08;102684.31;4957429;28;20042;-69
2021/04/03 08:25:56;;;;;;;20.40;3.50;;;;;;;17.03;27.47;102681.91;4973287;28;20182;-67
2021/04/03 08:28:22;;;;;;;21.30;3.38;;;;;;;17.13;25.83;102679.78;4970035;28;20913;-68
2021/04/03 08:30:47;;;;;;;20.75;3.78;;;;;;;17.13;25.58;102698.25;4966947;28;20049;-67
2021/04/03 08:33:14;;;;;;;16.00;2.88;;;;;;;16.89;26.50;102689.50;4966196;28;20039;-68
2021/04/03 08:35:43;;;;;;;53.30;15.68;;;;;;;17.02;26.52;102688.09;4963126;28;20050;-68
2021/04/03 08:38:12;;;;;;;45.72;14.63;;;;;;;14.76;28.71;102693.84;4966150;28;20035;-67
2021/04/03 08:40:39;;;;;;;20.60;5.70;;;;;;;14.95;28.53;102690.72;4963377;28;20043;-68
2021/04/03 08:43:04;;;;;;;18.13;2.85;;;;;;;14.93;29.17;102697.78;4966182;28;20038;-67
2021/04/03 08:45:37;;;;;;;18.02;2.95;;;;;;;15.21;28.56;102700.44;4962082;28;20031;-67
2021/04/03 08:48:07;;;;;;;22.75;6.07;;;;;;;15.23;29.17;102700.44;4983606;28;20049;-69
2021/04/03 08:50:33;;;;;;;21.95;5.45;;;;;;;14.22;30.06;102702.34;4962913;28;20049;-68
2021/04/03 08:53:03;;;;;;;66.22;29.00;;;;;;;13.15;32.01;102710.16;4983851;28;20039;-69
2021/04/03 08:55:29;;;;;;;20.50;5.13;;;;;;;11.84;33.60;102712.56;4955629;28;20039;-67
2021/04/03 08:57:59;;;;;;;18.35;4.75;;;;;;;13.84;30.48;102709.44;4968994;28;20394;-68
2021/04/03 09:00:25;;;;;;;20.15;3.42;;;;;;;12.90;32.32;102708.06;4951135;28;20150;-67
2021/04/03 09:02:55;;;;;;;26.73;4.55;;;;;;;12.61;32.92;102717.34;4968436;28;20616;-67
2021/04/03 09:05:21;;;;;;;16.30;4.10;;;;;;;12.87;32.45;102714.25;4966325;28;20505;-67
2021/04/03 09:07:47;;;;;;;23.10;3.75;;;;;;;12.73;32.89;102711.00;4967526;28;20059;-66
2021/04/03 09:10:18;;;;;;;18.35;6.05;;;;;;;12.66;33.73;102715.47;4967508;28;20039;-69
2021/04/03 09:12:46;;;;;;;31.00;6.57;;;;;;;12.71;33.65;102720.66;4968295;28;20509;-67
2021/04/03 09:15:14;;;;;;;20.52;3.83;;;;;;;11.99;34.07;102716.72;4964989;28;20130;-67
2021/04/03 09:17:51;;;;;;;28.92;4.30;;;;;;;12.55;33.85;102713.97;4967645;28;20081;-69
2021/04/03 09:20:20;;;;;;;23.95;4.28;;;;;;;11.59;36.05;102722.53;4966513;28;20511;-67
2021/04/03 09:22:48;;;;;;;32.40;7.40;;;;;;;11.24;35.65;102721.28;4963252;28;20124;-66
2021/04/03 09:25:20;;;;;;;37.90;6.93;;;;;;;11.27;36.04;102730.88;4967234;28;20034;-67
2021/04/03 09:28:06;;;;;;;34.70;7.05;;;;;;;12.43;34.42;102730.81;4970045;28;20053;-68
2021/04/03 09:30:54;;;;;;;34.00;6.28;;;;;;;11.70;35.70;102725.88;4966237;28;20053;-67
2021/04/03 09:33:26;;;;;;;36.65;6.57;;;;;;;11.93;34.52;102729.91;4971071;28;20035;-67
2021/04/03 09:36:06;;;;;;;31.17;6.57;;;;;;;10.94;35.98;102733.00;4976060;28;20046;-66
2021/04/03 09:38:37;;;;;;;22.50;4.07;;;;;;;10.99;35.32;102723.34;4968953;28;20042;-68
2021/04/03 09:41:21;;;;;;;21.13;4.65;;;;;;;12.18;33.43;102723.38;4970381;28;20034;-67
2021/04/03 09:43:47;;;;;;;25.13;5.25;;;;;;;11.70;34.54;102725.00;4967771;28;20595;-68
2021/04/03 09:46:13;;;;;;;24.00;5.25;;;;;;;11.37;35.98;102722.84;4971736;28;20162;-69
2021/04/03 09:48:43;;;;;;;41.95;9.50;;;;;;;11.57;35.66;102729.56;4970492;28;20042;-68
2021/04/03 09:51:09;;;;;;;25.35;6.13;;;;;;;11.52;35.01;102720.91;4969573;28;20120;-69
2021/04/03 09:53:35;;;;;;;33.95;8.05;;;;;;;12.53;33.78;102726.25;4991398;28;20045;-68
2021/04/03 09:56:01;;;;;;;37.83;9.60;;;;;;;11.12;35.36;102722.31;4986559;28;20043;-70
2021/04/03 09:58:27;;;;;;;35.33;8.30;;;;;;;11.44;36.27;102721.88;4967307;28;20065;-69
2021/04/03 10:00:52;;;;;;;32.50;11.23;;;;;;;11.35;36.05;102735.13;4966512;28;20829;-67
2021/04/03 10:03:18;;;;;;;41.85;14.77;;;;;;;11.58;35.35;102741.78;4968093;28;20035;-67
2021/04/03 10:05:44;;;;;;;33.78;8.20;;;;;;;10.79;35.57;102734.00;4965408;28;20469;-67
2021/04/03 10:08:09;;;;;;;30.27;7.53;;;;;;;10.75;36.17;102732.31;4969557;28;20035;-66
2021/04/03 10:10:35;;;;;;;18.88;5.30;;;;;;;10.56;36.30;102732.50;4971181;28;20102;-67
2021/04/03 10:13:00;;;;;;;31.70;8.02;;;;;;;12.09;34.45;102736.66;4968242;28;20101;-68
2021/04/03 10:15:26;;;;;;;52.45;12.65;;;;;;;11.37;34.76;102728.06;4968438;28;20054;-66
2021/04/03 10:17:51;;;;;;;43.05;12.20;;;;;;;11.24;34.87;102736.97;4981860;28;20038;-68
2021/04/03 10:20:17;;;;;;;28.63;6.38;;;;;;;10.45;35.88;102743.97;4966239;28;20034;-67
2021/04/03 10:22:44;;;;;;;21.98;3.83;;;;;;;9.78;36.82;102744.47;4968359;28;20049;-67
2021/04/03 10:25:10;;;;;;;15.27;3.72;;;;;;;10.83;35.49;102746.22;4964801;28;20030;-67
2021/04/03 10:27:36;;;;;;;19.00;3.35;;;;;;;11.37;35.49;102742.94;4967085;28;20031;-67
2021/04/03 10:30:03;;;;;;;19.73;3.78;;;;;;;10.92;35.45;102746.09;4981751;28;20109;-67
2021/04/03 10:32:28;;;;;;;15.13;2.60;;;;;;;10.84;35.18;102748.81;4968488;28;20035;-67
2021/04/03 10:34:53;;;;;;;18.17;3.00;;;;;;;10.69;35.89;102748.94;4968551;28;20562;-66
2021/04/03 10:37:19;;;;;;;14.38;2.95;;;;;;;9.72;36.30;102756.69;4964516;28;20129;-66
2021/04/03 10:39:45;;;;;;;32.55;4.88;;;;;;;10.26;36.68;102749.38;4965690;28;22174;-69
2021/04/03 10:42:10;;;;;;;23.05;4.47;;;;;;;10.80;35.68;102751.47;4967883;28;20085;-68
2021/04/03 10:44:36;;;;;;;27.77;4.90;;;;;;;11.04;34.78;102751.22;4972797;28;20043;-70
2021/04/03 10:47:02;;;;;;;23.48;4.65;;;;;;;11.61;34.54;102741.72;4983179;28;20087;-67
2021/04/03 10:49:28;;;;;;;15.57;2.50;;;;;;;11.15;34.92;102747.56;4968613;28;20038;-68
2021/04/03 10:51:54;;;;;;;27.40;4.10;;;;;;;11.45;35.70;102741.94;4952630;28;20699;-67
2021/04/03 10:54:21;;;;;;;26.73;5.55;;;;;;;10.84;35.36;102745.34;4965424;28;20035;-68
2021/04/03 10:56:47;;;;;;;26.70;8.00;;;;;;;11.23;35.25;102740.50;4969022;28;20066;-67
2021/04/03 10:59:12;;;;;;;36.88;13.02;;;;;;;11.99;33.71;102748.16;4971300;28;20485;-68
2021/04/03 11:01:38;;;;;;;25.63;7.22;;;;;;;12.03;33.25;102745.47;4969541;28;20073;-68
2021/04/03 11:04:04;;;;;;;28.13;6.97;;;;;;;11.27;34.55;102747.44;4968893;28;20739;-69
2021/04/03 11:06:29;;;;;;;20.27;5.43;;;;;;;11.75;33.77;102739.75;4987269;28;20122;-68
2021/04/03 11:08:55;;;;;;;31.52;5.78;;;;;;;11.07;34.02;102747.69;4976539;28;20104;-67
2021/04/03 11:11:20;;;;;;;31.40;8.02;;;;;;;11.25;34.75;102741.34;4976311;28;20075;-67
2021/04/03 11:13:46;;;;;;;20.58;5.68;;;;;;;11.19;35.40;102741.41;4974777;28;20050;-67
2021/04/03 11:16:11;;;;;;;26.92;7.10;;;;;;;11.02;35.25;102742.50;4969273;28;20034;-66
2021/04/03 11:18:37;;;;;;;21.60;6.82;;;;;;;10.89;34.72;102743.53;4970157;28;20100;-67
2021/04/03 11:21:02;;;;;;;23.23;5.45;;;;;;;10.43;35.57;102751.81;4982404;28;20499;-66
2021/04/03 11:23:28;;;;;;;25.65;5.43;;;;;;;10.16;36.38;102748.56;4975169;28;20042;-67
2021/04/03 11:25:53;;;;;;;30.17;5.93;;;;;;;10.43;36.36;102751.81;4973102;28;20030;-67
2021/04/03 11:28:19;;;;;;;22.40;5.75;;;;;;;10.42;36.96;102752.72;4973272;28;20050;-65